Time;durP1;ratioP1;P1;durP2;ratioP2;P2;SDS_P1;SDS_P2;PMS_P1;PMS_P2;Temp;Humidity;BMP_temperature;BMP_pressure;BME280_temperature;BME280_humidity;BME280_pressure;Samples;Min_cycle;Max_cycle;Signal;HPM_P1;HPM_P2
2022/05/01 00:01:18;;;;;;;17.65;11.57;;;4.30;97.70;;;;;;5071103;28;20027;-76
2022/05/01 00:03:44;;;;;;;19.65;12.05;;;4.30;98.20;;;;;;5070924;28;20028;-73
2022/05/01 00:06:11;;;;;;;21.60;11.35;;;4.20;99.70;;;;;;5072324;28;20040;-74
2022/05/01 00:08:42;;;;;;;22.38;12.20;;;4.20;99.90;;;;;;5054120;28;20104;-73
2022/05/01 00:11:08;;;;;;;18.80;11.02;;;4.20;99.90;;;;;;5054226;28;20020;-76
2022/05/01 00:13:35;;;;;;;17.17;9.93;;;4.20;99.90;;;;;;5070788;28;20519;-74
2022/05/01 00:16:00;;;;;;;14.13;9.48;;;4.20;99.40;;;;;;5073751;28;20031;-74
2022/05/01 00:18:26;;;;;;;15.13;8.93;;;4.20;98.30;;;;;;5057734;28;20021;-76
2022/05/01 00:20:51;;;;;;;15.05;8.70;;;4.20;97.40;;;;;;5075653;28;20527;-75
2022/05/01 00:23:18;;;;;;;9.95;8.13;;;4.20;97.10;;;;;;5074177;28;20056;-76
2022/05/01 00:25:44;;;;;;;11.23;9.48;;;4.20;96.60;;;;;;5057593;28;20033;-74
2022/05/01 00:28:14;;;;;;;14.65;10.02;;;4.20;96.70;;;;;;5057596;28;20020;-73
2022/05/01 00:30:41;;;;;;;15.05;9.43;;;4.10;98.70;;;;;;5057442;28;20017;-73
2022/05/01 00:38:36;;;;;;;13.48;8.10;;;4.00;98.00;;;;;;5075583;28;20082;-73
2022/05/01 00:41:04;;;;;;;13.73;8.75;;;4.10;98.20;;;;;;5057331;28;20490;-75
2022/05/01 00:43:31;;;;;;;15.25;9.23;;;4.10;99.50;;;;;;5057287;28;20031;-74
2022/05/01 00:45:57;;;;;;;12.57;8.48;;;4.00;99.80;;;;;;5075156;28;20064;-73
2022/05/01 00:48:22;;;;;;;15.35;9.80;;;4.10;99.20;;;;;;5087228;28;20056;-74
2022/05/01 00:50:49;;;;;;;13.98;8.95;;;4.10;98.90;;;;;;5095523;28;20024;-76
2022/05/01 00:53:14;;;;;;;12.27;8.35;;;4.10;99.90;;;;;;5095320;28;20510;-74
2022/05/01 00:55:40;;;;;;;13.65;8.43;;;4.00;99.90;;;;;;5094092;28;20016;-76
2022/05/01 00:58:07;;;;;;;14.20;9.50;;;4.00;99.90;;;;;;5095260;28;20072;-76
2022/05/01 01:00:34;;;;;;;13.50;8.80;;;4.10;99.20;;;;;;5095223;28;20169;-75
2022/05/01 01:03:01;;;;;;;15.00;9.35;;;4.10;99.00;;;;;;5076858;28;20473;-76
2022/05/01 01:05:26;;;;;;;12.00;8.52;;;4.00;99.70;;;;;;5076738;28;20109;-74
2022/05/01 01:07:52;;;;;;;18.60;10.75;;;4.00;99.90;;;;;;5095096;28;20024;-73
2022/05/01 01:10:19;;;;;;;13.23;9.20;;;4.10;99.90;;;;;;5093880;28;20354;-73
2022/05/01 01:12:53;;;;;;;15.02;9.10;;;4.10;99.10;;;;;;5095021;28;20473;-73
2022/05/01 01:15:35;;;;;;;13.57;9.65;;;4.10;97.60;;;;;;5093664;28;20419;-73
2022/05/01 01:18:01;;;;;;;16.42;8.98;;;4.20;95.40;;;;;;5094864;28;20138;-73
2022/05/01 01:20:28;;;;;;;17.15;10.40;;;4.30;94.20;;;;;;5094860;28;20052;-75
2022/05/01 01:22:56;;;;;;;19.38;11.75;;;4.30;94.40;;;;;;5094680;28;20035;-73
2022/05/01 01:25:25;;;;;;;18.23;10.65;;;4.20;94.50;;;;;;5094578;28;20024;-76
2022/05/01 01:27:54;;;;;;;16.63;9.48;;;4.20;96.60;;;;;;5094608;28;20032;-74
2022/05/01 01:33:05;;;;;;;14.75;8.32;;;4.10;98.00;;;;;;5094877;28;20555;-75
2022/05/01 01:35:35;;;;;;;12.82;8.77;;;4.20;97.40;;;;;;5094585;28;20103;-75
2022/05/01 01:38:01;;;;;;;12.88;8.82;;;4.20;96.30;;;;;;5076133;28;20024;-73
2022/05/01 01:41:03;;;;;;;15.93;8.30;;;4.10;95.80;;;;;;5094600;28;20384;-73
2022/05/01 01:43:29;;;;;;;16.27;9.90;;;4.10;96.80;;;;;;5042164;28;20029;-73
2022/05/01 01:45:58;;;;;;;16.85;9.25;;;4.10;98.30;;;;;;5092919;28;20032;-73
2022/05/01 01:48:24;;;;;;;15.75;8.98;;;4.00;99.60;;;;;;5094284;28;20028;-74
2022/05/01 01:50:59;;;;;;;12.20;8.55;;;3.90;99.20;;;;;;5093068;28;20023;-76
2022/05/01 01:53:25;;;;;;;14.88;9.65;;;4.00;97.80;;;;;;5094239;28;20032;-73
2022/05/01 01:55:51;;;;;;;17.88;9.70;;;3.90;97.50;;;;;;5076447;28;20107;-73
2022/05/01 01:58:18;;;;;;;17.55;9.68;;;3.90;97.70;;;;;;5094025;28;20020;-73
2022/05/01 02:00:44;;;;;;;15.25;9.40;;;3.90;97.70;;;;;;5092667;28;20330;-76
2022/05/01 02:03:10;;;;;;;15.35;9.10;;;3.80;98.30;;;;;;5094080;28;20081;-73
2022/05/01 02:05:35;;;;;;;16.42;9.50;;;3.80;98.20;;;;;;5093944;28;20036;-74
2022/05/01 02:08:02;;;;;;;13.98;9.43;;;3.80;98.20;;;;;;5093971;28;20072;-75
2022/05/01 02:10:28;;;;;;;13.45;9.10;;;3.80;97.20;;;;;;5093885;28;20531;-76
2022/05/01 02:12:54;;;;;;;13.52;9.50;;;3.80;96.10;;;;;;5075690;28;20016;-76
2022/05/01 02:15:20;;;;;;;17.13;9.80;;;3.70;95.50;;;;;;5092367;28;20496;-76
2022/05/01 02:17:49;;;;;;;16.50;9.95;;;3.70;95.30;;;;;;5092439;28;20020;-74
2022/05/01 02:20:15;;;;;;;17.35;9.98;;;3.70;95.20;;;;;;5093688;28;20027;-73
2022/05/01 02:22:42;;;;;;;12.73;9.27;;;3.70;95.70;;;;;;5093647;28;20032;-74
2022/05/01 02:25:08;;;;;;;15.07;9.85;;;3.70;96.10;;;;;;5075137;28;20390;-75
2022/05/01 02:27:34;;;;;;;13.82;9.05;;;3.70;97.10;;;;;;5093488;28;20089;-76
2022/05/01 02:30:00;;;;;;;17.33;10.55;;;3.60;98.60;;;;;;5093414;28;20020;-73
2022/05/01 02:32:26;;;;;;;14.10;9.60;;;3.60;99.90;;;;;;5093493;28;20478;-75
2022/05/01 02:34:51;;;;;;;19.95;10.18;;;3.50;99.90;;;;;;5093376;28;20114;-75
2022/05/01 02:37:17;;;;;;;20.80;11.50;;;3.50;99.90;;;;;;5092083;28;20055;-74
2022/05/01 02:39:42;;;;;;;35.55;14.60;;;3.50;99.90;;;;;;5091613;28;20047;-76
2022/05/01 02:42:08;;;;;;;39.97;16.52;;;3.40;99.90;;;;;;5093320;28;20026;-75
2022/05/01 02:44:34;;;;;;;28.33;14.88;;;3.40;99.90;;;;;;5093354;28;20059;-74
2022/05/01 02:47:00;;;;;;;35.05;15.13;;;3.40;99.90;;;;;;5093168;28;20054;-75
2022/05/01 02:49:25;;;;;;;25.63;13.88;;;3.40;99.90;;;;;;5091911;28;20020;-73
2022/05/01 02:51:53;;;;;;;28.15;14.18;;;3.40;99.90;;;;;;5093226;28;20115;-74
2022/05/01 02:54:20;;;;;;;28.77;14.82;;;3.40;99.90;;;;;;5093067;28;20012;-76
2022/05/01 02:56:47;;;;;;;42.38;18.30;;;3.30;99.90;;;;;;5091827;28;20393;-75
2022/05/01 02:59:13;;;;;;;27.83;15.75;;;3.30;99.90;;;;;;5092155;28;20130;-73
2022/05/01 03:01:38;;;;;;;32.05;14.80;;;3.20;99.90;;;;;;5093208;28;20032;-76
2022/05/01 03:04:04;;;;;;;28.33;14.05;;;3.20;99.90;;;;;;5093072;28;20104;-73
2022/05/01 03:06:32;;;;;;;23.63;12.52;;;3.20;99.90;;;;;;5093072;28;20486;-73
2022/05/01 03:08:58;;;;;;;22.88;13.90;;;3.20;99.90;;;;;;5091774;28;20020;-75
2022/05/01 03:11:23;;;;;;;25.05;12.95;;;3.20;99.90;;;;;;5091840;28;20499;-76
2022/05/01 03:13:49;;;;;;;26.63;14.45;;;3.30;99.90;;;;;;5093025;28;20035;-73
2022/05/01 03:16:14;;;;;;;31.42;15.98;;;3.30;99.90;;;;;;5092787;28;20534;-73
2022/05/01 03:24:09;;;;;;;26.90;14.15;;;3.40;99.90;;;;;;5092570;28;20105;-73
2022/05/01 03:26:35;;;;;;;29.83;16.00;;;3.40;99.90;;;;;;5091325;28;20028;-75
2022/05/01 03:29:00;;;;;;;34.38;15.75;;;3.40;99.90;;;;;;5092657;28;20473;-76
2022/05/01 03:31:28;;;;;;;28.00;13.73;;;3.40;99.90;;;;;;5092770;28;20024;-76
2022/05/01 03:33:54;;;;;;;28.02;16.88;;;3.40;99.90;;;;;;5092695;28;20039;-75
2022/05/01 03:36:21;;;;;;;26.88;14.85;;;3.40;99.90;;;;;;5074939;28;20024;-74
2022/05/01 03:38:47;;;;;;;23.75;13.95;;;3.40;99.90;;;;;;5092696;28;20024;-75
2022/05/01 03:41:16;;;;;;;19.42;13.20;;;3.50;99.90;;;;;;5091477;28;20020;-74
2022/05/01 03:43:42;;;;;;;20.92;12.65;;;3.50;99.90;;;;;;5092657;28;20107;-75
2022/05/01 03:46:08;;;;;;;20.10;11.70;;;3.50;99.90;;;;;;5092587;28;20123;-76
2022/05/01 03:48:34;;;;;;;23.42;13.20;;;3.50;99.90;;;;;;5092611;28;20028;-74
2022/05/01 03:51:00;;;;;;;21.63;14.45;;;3.60;99.90;;;;;;5094211;28;20137;-74
2022/05/01 03:53:26;;;;;;;21.17;14.02;;;3.60;99.90;;;;;;5096432;28;20473;-74
2022/05/01 03:55:52;;;;;;;18.65;12.10;;;3.80;99.90;;;;;;5096574;28;20020;-76
2022/05/01 03:58:19;;;;;;;22.45;14.05;;;3.90;99.90;;;;;;5095275;28;20027;-74
2022/05/01 04:00:47;;;;;;;25.13;15.77;;;4.00;99.90;;;;;;5096342;28;20020;-75
2022/05/01 04:03:17;;;;;;;21.13;13.05;;;4.20;99.90;;;;;;5096405;28;20031;-74
2022/05/01 04:05:43;;;;;;;22.40;13.07;;;4.30;99.90;;;;;;5078072;28;20028;-74
2022/05/01 04:08:10;;;;;;;18.10;11.15;;;4.30;99.90;;;;;;5096408;28;20049;-76
2022/05/01 04:10:41;;;;;;;19.40;13.02;;;4.50;99.90;;;;;;5077880;28;20012;-73
2022/05/01 04:13:07;;;;;;;25.20;16.65;;;4.60;99.90;;;;;;5096041;28;20020;-73
2022/05/01 04:15:33;;;;;;;21.38;14.70;;;4.70;99.90;;;;;;5096122;28;20047;-76
2022/05/01 04:18:02;;;;;;;22.58;13.90;;;4.90;99.90;;;;;;5077825;28;20016;-74
2022/05/01 04:20:28;;;;;;;23.52;13.85;;;5.20;98.90;;;;;;5096050;28;20046;-76
2022/05/01 04:22:54;;;;;;;25.80;12.30;;;5.60;96.40;;;;;;5095979;28;20047;-75
2022/05/01 04:25:30;;;;;;;20.20;13.40;;;5.80;92.90;;;;;;5095810;28;20046;-76
2022/05/01 04:28:01;;;;;;;20.40;13.00;;;6.20;89.20;;;;;;5095928;28;20028;-76
2022/05/01 04:30:27;;;;;;;20.50;11.82;;;6.60;82.80;;;;;;5094599;28;20396;-76
2022/05/01 04:33:01;;;;;;;23.00;12.65;;;7.10;77.60;;;;;;5094403;28;20027;-76
2022/05/01 04:35:38;;;;;;;19.15;11.88;;;7.40;74.40;;;;;;5077563;28;20066;-74
2022/05/01 04:38:15;;;;;;;15.35;11.05;;;7.70;71.50;;;;;;5094529;28;20111;-76
2022/05/01 04:40:47;;;;;;;18.70;9.48;;;7.90;71.00;;;;;;5095751;28;20028;-74
2022/05/01 04:43:18;;;;;;;17.67;11.70;;;8.10;69.20;;;;;;5077510;28;20031;-76
2022/05/01 04:45:46;;;;;;;15.10;11.10;;;8.40;67.20;;;;;;5095606;28;20040;-76
2022/05/01 04:48:12;;;;;;;19.13;11.15;;;8.50;66.10;;;;;;5094316;28;20020;-74
2022/05/01 04:50:40;;;;;;;19.50;11.50;;;8.70;65.40;;;;;;5095563;28;20021;-74
2022/05/01 04:53:07;;;;;;;19.05;11.15;;;8.80;66.10;;;;;;5077186;28;20020;-73
2022/05/01 04:55:33;;;;;;;21.02;11.50;;;8.90;65.70;;;;;;5093972;28;20016;-76
2022/05/01 04:57:59;;;;;;;14.88;10.43;;;9.00;65.70;;;;;;5095223;28;20020;-76
2022/05/01 05:00:25;;;;;;;16.73;11.00;;;9.10;65.00;;;;;;5093992;28;20047;-76
2022/05/01 05:02:52;;;;;;;18.85;10.60;;;9.30;65.20;;;;;;5094947;28;20385;-74
2022/05/01 05:05:19;;;;;;;14.75;9.85;;;9.40;64.20;;;;;;5093853;28;20024;-74
2022/05/01 05:07:46;;;;;;;16.45;9.90;;;9.40;64.50;;;;;;5095322;28;20055;-77
2022/05/01 05:10:12;;;;;;;17.33;11.95;;;9.50;64.50;;;;;;5076968;28;20030;-76
2022/05/01 05:12:43;;;;;;;16.75;10.35;;;9.70;64.10;;;;;;5095037;28;20024;-76
2022/05/01 05:15:10;;;;;;;14.45;9.98;;;9.80;63.60;;;;;;5093786;28;20024;-74
2022/05/01 05:17:37;;;;;;;12.68;10.00;;;9.90;62.80;;;;;;5076714;28;20020;-76
2022/05/01 05:20:04;;;;;;;18.83;10.25;;;10.10;63.00;;;;;;5094821;28;20023;-74
2022/05/01 05:22:30;;;;;;;13.05;9.98;;;10.20;61.40;;;;;;5094852;28;20028;-76
2022/05/01 05:24:56;;;;;;;18.38;11.40;;;10.40;61.50;;;;;;5094905;28;20391;-76
2022/05/01 05:27:25;;;;;;;15.65;11.35;;;10.50;61.20;;;;;;5094809;28;20470;-77
2022/05/01 05:29:52;;;;;;;19.00;12.00;;;10.60;60.70;;;;;;5093374;28;20012;-76
2022/05/01 05:32:18;;;;;;;15.07;10.85;;;10.80;60.70;;;;;;5076703;28;20081;-74
2022/05/01 05:34:44;;;;;;;15.13;10.27;;;10.90;60.30;;;;;;5076381;28;20024;-77
2022/05/01 05:37:10;;;;;;;18.58;11.73;;;11.10;59.60;;;;;;5093414;28;20488;-75
2022/05/01 05:39:35;;;;;;;16.92;11.60;;;11.20;58.90;;;;;;5094563;28;20016;-74
2022/05/01 05:42:01;;;;;;;17.35;12.13;;;11.30;58.20;;;;;;5093372;28;20020;-75
2022/05/01 05:44:26;;;;;;;14.35;11.23;;;11.50;57.70;;;;;;5094579;28;20093;-76
2022/05/01 05:46:52;;;;;;;17.30;11.75;;;11.60;57.50;;;;;;5093091;28;20036;-76
2022/05/01 05:49:18;;;;;;;16.73;11.45;;;11.70;57.30;;;;;;5093191;28;20028;-74
2022/05/01 05:51:43;;;;;;;17.15;11.27;;;11.80;57.30;;;;;;5093070;28;20051;-75
2022/05/01 05:54:09;;;;;;;16.10;11.68;;;11.80;56.80;;;;;;5094382;28;20457;-74
2022/05/01 05:56:34;;;;;;;18.50;11.55;;;12.00;56.40;;;;;;5094265;28;20024;-77
2022/05/01 05:59:00;;;;;;;14.82;11.13;;;12.10;56.80;;;;;;5094299;28;20028;-75
2022/05/01 06:01:26;;;;;;;17.75;12.38;;;12.20;57.20;;;;;;5094121;28;20020;-75
2022/05/01 06:03:52;;;;;;;18.95;13.18;;;12.40;57.20;;;;;;5092901;28;20032;-77
2022/05/01 06:06:18;;;;;;;14.18;11.02;;;12.60;57.10;;;;;;5092823;28;20039;-76
2022/05/01 06:08:44;;;;;;;15.48;11.40;;;12.70;56.10;;;;;;5094123;28;20024;-76
2022/05/01 06:11:10;;;;;;;15.57;11.32;;;12.80;56.50;;;;;;5092849;28;20027;-76
2022/05/01 06:13:36;;;;;;;14.85;10.77;;;12.90;56.40;;;;;;5093159;28;20381;-76
2022/05/01 06:16:02;;;;;;;13.52;10.50;;;12.90;55.10;;;;;;5092704;28;20028;-75
2022/05/01 06:18:27;;;;;;;13.25;10.15;;;13.10;55.50;;;;;;5092564;28;20420;-74
2022/05/01 06:20:53;;;;;;;12.52;10.35;;;13.10;54.40;;;;;;5092622;28;20119;-75
2022/05/01 06:23:20;;;;;;;14.77;10.75;;;13.20;53.30;;;;;;5093671;28;20129;-77
2022/05/01 06:25:46;;;;;;;17.63;11.20;;;13.30;53.40;;;;;;5093804;28;20024;-76
2022/05/01 06:28:16;;;;;;;15.60;11.02;;;13.40;53.60;;;;;;5092415;28;20397;-74
2022/05/01 06:30:45;;;;;;;16.35;10.35;;;13.40;53.00;;;;;;5093605;28;20077;-76
2022/05/01 06:33:19;;;;;;;17.88;11.35;;;13.50;53.50;;;;;;5093580;28;20024;-74
2022/05/01 06:35:49;;;;;;;13.90;9.57;;;13.50;53.60;;;;;;5092088;28;20040;-75
2022/05/01 06:38:15;;;;;;;13.27;9.52;;;13.70;53.20;;;;;;5093553;28;20009;-74
2022/05/01 06:40:43;;;;;;;14.13;9.57;;;13.90;53.90;;;;;;5093589;28;20012;-75
2022/05/01 06:43:10;;;;;;;11.77;9.88;;;14.00;53.20;;;;;;5075295;28;20547;-74
2022/05/01 06:45:36;;;;;;;14.90;9.65;;;14.20;53.20;;;;;;5075104;28;20060;-75
2022/05/01 06:48:02;;;;;;;14.25;9.77;;;14.20;52.20;;;;;;5093385;28;20016;-77
2022/05/01 06:50:29;;;;;;;11.15;8.90;;;14.30;52.00;;;;;;5092057;28;20069;-77
2022/05/01 06:52:55;;;;;;;10.70;7.90;;;14.30;51.30;;;;;;5092099;28;20027;-76
2022/05/01 06:55:23;;;;;;;10.07;8.45;;;14.30;49.60;;;;;;5091905;28;20016;-74
2022/05/01 06:57:48;;;;;;;10.40;7.75;;;14.50;49.90;;;;;;5093372;28;20427;-74
2022/05/01 07:00:15;;;;;;;9.93;7.53;;;14.40;49.10;;;;;;5092155;28;20111;-74
2022/05/01 07:02:50;;;;;;;12.27;9.18;;;14.50;49.20;;;;;;5093306;28;20028;-77
2022/05/01 07:05:18;;;;;;;12.43;7.97;;;14.60;49.70;;;;;;5075066;28;20013;-77
2022/05/01 07:07:44;;;;;;;11.52;8.88;;;14.60;49.90;;;;;;5093091;28;20024;-75
2022/05/01 07:10:10;;;;;;;10.57;8.00;;;14.60;49.80;;;;;;5091905;28;20031;-76
2022/05/01 07:12:35;;;;;;;10.20;8.13;;;14.70;50.20;;;;;;5091799;28;20497;-77
2022/05/01 07:15:01;;;;;;;11.68;8.65;;;14.70;49.90;;;;;;5093090;28;20035;-76
2022/05/01 07:17:27;;;;;;;13.18;8.18;;;14.70;49.70;;;;;;5091881;28;20495;-77
2022/05/01 07:19:53;;;;;;;12.88;8.43;;;14.90;50.00;;;;;;5093026;28;20111;-75
2022/05/01 07:22:18;;;;;;;10.07;7.72;;;15.20;49.80;;;;;;5093021;28;20111;-75
2022/05/01 07:24:44;;;;;;;11.23;7.97;;;15.20;49.50;;;;;;5092928;28;20047;-77
2022/05/01 07:27:10;;;;;;;10.02;6.10;;;15.40;49.00;;;;;;5096930;28;20512;-78
2022/05/01 07:29:35;;;;;;;9.38;7.15;;;15.50;48.60;;;;;;5095580;28;20370;-77
2022/05/01 07:32:01;;;;;;;8.43;7.03;;;15.60;48.10;;;;;;5095567;28;20412;-78
2022/05/01 07:34:27;;;;;;;7.15;5.65;;;15.70;47.50;;;;;;5096831;28;20016;-77
2022/05/01 07:36:53;;;;;;;8.07;5.93;;;15.70;46.50;;;;;;5093646;28;20039;-77
2022/05/01 07:39:18;;;;;;;9.35;6.82;;;15.70;46.70;;;;;;5096608;28;20020;-78
2022/05/01 07:41:44;;;;;;;7.30;6.13;;;15.80;46.50;;;;;;5084949;28;20069;-77
2022/05/01 07:44:11;;;;;;;8.63;6.80;;;15.80;46.20;;;;;;5086409;28;20016;-77
2022/05/01 07:46:39;;;;;;;8.38;6.10;;;15.70;46.40;;;;;;5068490;28;20095;-75
2022/05/01 07:49:06;;;;;;;6.85;6.20;;;15.80;46.70;;;;;;5066838;28;20021;-77
2022/05/01 07:51:31;;;;;;;7.20;6.47;;;15.80;46.20;;;;;;5068025;28;20024;-78
2022/05/01 07:53:58;;;;;;;8.10;6.53;;;15.90;45.90;;;;;;5084902;28;20481;-77
2022/05/01 07:56:27;;;;;;;9.10;6.60;;;16.00;46.10;;;;;;5090753;28;20020;-77
2022/05/01 07:58:53;;;;;;;7.05;5.93;;;16.10;45.50;;;;;;5092593;28;20032;-76
2022/05/01 08:01:19;;;;;;;8.15;6.53;;;16.20;45.50;;;;;;5063498;28;20021;-76
2022/05/01 08:06:29;;;;;;;6.93;5.85;;;16.30;44.70;;;;;;5089088;28;20094;-77
2022/05/01 08:08:55;;;;;;;11.27;7.38;;;16.40;44.00;;;;;;5067781;28;20040;-77
2022/05/01 08:11:21;;;;;;;7.57;6.57;;;16.60;43.70;;;;;;5084421;28;20024;-78
2022/05/01 08:13:46;;;;;;;8.60;6.90;;;16.80;43.80;;;;;;5083135;28;20091;-76
2022/05/01 08:16:12;;;;;;;14.80;7.22;;;16.70;42.10;;;;;;5085793;28;20019;-76
2022/05/01 08:21:22;;;;;;;10.07;6.50;;;16.80;42.40;;;;;;5086389;28;20563;-78
2022/05/01 08:23:48;;;;;;;11.45;6.82;;;16.90;43.20;;;;;;5085523;28;20036;-78
2022/05/01 08:26:17;;;;;;;7.35;6.53;;;17.20;43.30;;;;;;5094611;28;20069;-77
2022/05/01 08:28:44;;;;;;;7.82;6.22;;;17.30;42.50;;;;;;5086640;28;20029;-75
2022/05/01 08:31:10;;;;;;;11.70;6.95;;;17.30;42.60;;;;;;5067879;28;20058;-76
2022/05/01 08:33:37;;;;;;;9.02;6.78;;;17.30;41.70;;;;;;5085062;28;20020;-78
2022/05/01 08:36:06;;;;;;;8.13;6.60;;;17.40;42.90;;;;;;5090484;28;20044;-78
2022/05/01 08:38:32;;;;;;;8.38;6.20;;;17.40;42.80;;;;;;5088109;28;20024;-76
2022/05/01 08:40:58;;;;;;;9.55;6.75;;;17.40;43.30;;;;;;5075607;28;20024;-76
2022/05/01 08:43:25;;;;;;;7.97;6.88;;;17.50;43.10;;;;;;5080644;28;20025;-77
2022/05/01 08:45:54;;;;;;;7.80;6.65;;;17.40;41.70;;;;;;5083476;28;20068;-78
2022/05/01 08:48:29;;;;;;;9.25;6.25;;;17.50;42.10;;;;;;5077939;28;20115;-79
2022/05/01 08:50:55;;;;;;;8.50;6.00;;;17.70;42.60;;;;;;5075106;28;20377;-79
2022/05/01 08:53:23;;;;;;;8.88;6.43;;;17.80;42.10;;;;;;5094744;28;20020;-77
2022/05/01 08:55:50;;;;;;;9.05;6.75;;;17.90;42.20;;;;;;5094975;28;20103;-76
2022/05/01 08:58:16;;;;;;;7.15;6.45;;;18.00;41.70;;;;;;5085275;28;20013;-79
2022/05/01 09:00:42;;;;;;;7.43;6.68;;;18.20;42.10;;;;;;5057009;28;20031;-77
2022/05/01 09:03:07;;;;;;;10.25;7.05;;;18.00;42.40;;;;;;5079824;28;20050;-79
2022/05/01 09:05:33;;;;;;;9.32;7.22;;;17.80;41.50;;;;;;5082679;28;20016;-79
2022/05/01 09:07:59;;;;;;;7.35;6.43;;;17.70;41.80;;;;;;5067119;28;20538;-79
2022/05/01 09:10:31;;;;;;;8.15;7.25;;;17.80;42.00;;;;;;5083820;28;20412;-79
2022/05/01 09:12:57;;;;;;;13.73;8.05;;;17.70;42.00;;;;;;5083677;28;20016;-79
2022/05/01 09:15:34;;;;;;;12.75;7.68;;;17.70;41.70;;;;;;5067408;28;20055;-80
2022/05/01 09:18:04;;;;;;;8.18;6.80;;;17.70;41.20;;;;;;5085178;28;20035;-79
2022/05/01 09:20:31;;;;;;;7.07;6.38;;;17.60;40.20;;;;;;5073809;28;20060;-81
2022/05/01 09:22:58;;;;;;;9.18;6.38;;;17.60;41.20;;;;;;5073458;28;20461;-76
2022/05/01 09:25:27;;;;;;;10.70;7.53;;;17.90;42.70;;;;;;5056012;28;20539;-76
2022/05/01 09:27:57;;;;;;;8.68;6.53;;;17.90;40.90;;;;;;5070114;28;20474;-77
2022/05/01 09:30:33;;;;;;;8.40;7.10;;;17.90;41.00;;;;;;5082931;28;20025;-76
2022/05/01 09:33:00;;;;;;;10.90;7.22;;;17.90;40.50;;;;;;5086582;28;20012;-77
2022/05/01 09:35:31;;;;;;;8.25;6.72;;;18.00;40.80;;;;;;5075175;28;20023;-77
2022/05/01 09:38:18;;;;;;;9.15;6.43;;;18.10;40.40;;;;;;5093309;28;20016;-80
2022/05/01 09:40:55;;;;;;;7.47;6.10;;;18.20;39.50;;;;;;5094221;28;20598;-80
2022/05/01 09:43:47;;;;;;;7.88;6.53;;;18.10;38.90;;;;;;5093877;28;20012;-78
2022/05/01 09:46:24;;;;;;;7.78;6.60;;;18.20;38.90;;;;;;5076079;28;20039;-80
2022/05/01 09:49:07;;;;;;;7.55;6.55;;;18.20;39.50;;;;;;5092983;28;20020;-77
2022/05/01 09:51:35;;;;;;;10.35;6.13;;;18.50;41.30;;;;;;5092877;28;20035;-78
2022/05/01 09:54:02;;;;;;;9.55;6.53;;;18.70;40.70;;;;;;5093799;28;20069;-80
2022/05/01 09:56:28;;;;;;;9.07;6.55;;;18.60;39.00;;;;;;5093045;28;20073;-81
2022/05/01 09:58:58;;;;;;;6.45;5.72;;;18.70;38.80;;;;;;5093667;28;20020;-80
2022/05/01 10:01:24;;;;;;;9.23;6.30;;;18.70;38.70;;;;;;5092707;28;20024;-80
2022/05/01 10:03:52;;;;;;;8.48;6.05;;;18.70;39.00;;;;;;5092283;28;20026;-80
2022/05/01 10:06:19;;;;;;;10.55;6.53;;;18.70;38.30;;;;;;5092732;28;20028;-79
2022/05/01 10:08:46;;;;;;;8.43;6.05;;;18.80;37.80;;;;;;5093405;28;20086;-80
2022/05/01 10:11:14;;;;;;;9.20;6.50;;;18.90;37.90;;;;;;5092732;28;20028;-80
2022/05/01 10:13:40;;;;;;;6.90;6.20;;;19.00;38.90;;;;;;5093373;28;20081;-80
2022/05/01 10:16:10;;;;;;;6.88;6.18;;;19.10;38.80;;;;;;5075675;28;20047;-81
2022/05/01 10:18:37;;;;;;;9.27;6.18;;;19.00;37.40;;;;;;5093747;28;20053;-80
2022/05/01 10:21:04;;;;;;;8.40;5.88;;;19.00;37.50;;;;;;5077728;28;20351;-80
2022/05/01 10:23:30;;;;;;;9.40;6.05;;;18.90;38.70;;;;;;5080265;28;20509;-81
2022/05/01 10:25:59;;;;;;;7.82;6.10;;;19.20;39.40;;;;;;5084259;28;20028;-81
2022/05/01 10:28:46;;;;;;;8.77;6.47;;;19.50;39.50;;;;;;5074730;28;20058;-81
2022/05/01 10:34:44;;;;;;;8.73;6.50;;;19.60;39.70;;;;;;5079002;28;20130;-81
2022/05/01 10:37:18;;;;;;;6.35;5.15;;;19.80;40.40;;;;;;5092485;28;20027;-81
2022/05/01 10:39:45;;;;;;;8.10;5.85;;;20.00;39.60;;;;;;5083255;28;20107;-81
2022/05/01 10:42:10;;;;;;;9.55;6.13;;;20.20;38.70;;;;;;5073378;28;20020;-81
2022/05/01 10:44:40;;;;;;;7.63;6.32;;;20.10;38.90;;;;;;5072832;28;20032;-81
2022/05/01 10:47:12;;;;;;;7.70;6.63;;;19.90;37.90;;;;;;5071582;28;20039;-80
2022/05/01 10:49:47;;;;;;;8.27;6.53;;;20.00;38.00;;;;;;5071267;28;20048;-80
2022/05/01 10:52:20;;;;;;;15.70;6.82;;;20.10;36.50;;;;;;5072643;28;20478;-81
2022/05/01 10:54:54;;;;;;;6.53;5.88;;;19.90;36.50;;;;;;5053589;28;20043;-81
2022/05/01 10:57:22;;;;;;;8.48;5.75;;;20.10;39.50;;;;;;5073162;28;20094;-81
2022/05/01 10:59:50;;;;;;;7.85;6.38;;;19.90;39.20;;;;;;5072284;28;20075;-80
2022/05/01 11:02:35;;;;;;;17.23;6.57;;;19.60;38.60;;;;;;5071691;28;20118;-81
2022/05/01 11:05:01;;;;;;;7.45;5.88;;;19.60;39.50;;;;;;5074296;28;20021;-81
2022/05/01 11:07:28;;;;;;;8.57;6.53;;;19.50;38.90;;;;;;5054194;28;20040;-80
2022/05/01 11:09:56;;;;;;;7.25;5.82;;;19.60;38.90;;;;;;5068035;28;20028;-80
2022/05/01 11:12:22;;;;;;;10.77;7.90;;;19.40;37.90;;;;;;5091696;28;20066;-80
2022/05/01 11:14:59;;;;;;;8.70;7.07;;;19.00;38.90;;;;;;5072231;28;20064;-80
2022/05/01 11:17:39;;;;;;;7.13;6.20;;;18.30;39.10;;;;;;5055487;28;20036;-75
2022/05/01 11:20:05;;;;;;;8.50;6.70;;;18.10;40.70;;;;;;5075539;28;20089;-75
2022/05/01 11:22:31;;;;;;;8.45;6.60;;;18.10;41.60;;;;;;5072321;28;20485;-80
2022/05/01 11:24:57;;;;;;;9.10;7.00;;;18.00;42.10;;;;;;5074038;28;20544;-80
2022/05/01 11:32:44;;;;;;;12.70;6.15;;;18.00;41.40;;;;;;5300704;22;20131;-87
2022/05/01 11:35:32;;;;;;;8.30;6.10;;;18.10;42.50;;;;;;5048038;28;20041;-88
2022/05/01 11:38:08;;;;;;;6.63;5.93;;;18.10;41.40;;;;;;5047138;28;20020;-87
2022/05/01 11:41:39;;;;;;;;;;;;;;;;;;;;;
2022/05/01 12:17:45;;;;;;;6.97;5.63;;;19.10;39.40;;;;;;5534698;22;20132;-81
2022/05/01 12:20:14;;;;;;;7.43;5.43;;;19.30;39.50;;;;;;5050836;28;20402;-83
2022/05/01 12:22:40;;;;;;;11.20;5.88;;;19.50;40.30;;;;;;5016411;28;20049;-88
2022/05/01 12:25:10;;;;;;;6.25;5.30;;;19.50;39.20;;;;;;5016677;28;20017;-90
2022/05/01 12:27:40;;;;;;;6.45;5.38;;;19.60;39.50;;;;;;5016103;28;20034;-90
2022/05/01 12:30:07;;;;;;;8.32;5.97;;;19.60;39.10;;;;;;5016653;28;20026;-88
2022/05/01 12:32:54;;;;;;;7.68;6.70;;;19.60;38.00;;;;;;5017128;28;20029;-83
2022/05/01 12:35:22;;;;;;;8.88;6.38;;;19.30;37.40;;;;;;5035563;28;20518;-84
2022/05/01 12:38:01;;;;;;;7.43;5.45;;;19.20;37.50;;;;;;5035132;28;20036;-84
2022/05/01 12:50:28;;;;;;;7.75;6.13;;;19.40;38.90;;;;;;4967746;28;20050;-90
2022/05/01 12:53:10;;;;;;;8.77;5.88;;;19.30;38.90;;;;;;4971363;28;20027;-90
2022/05/01 12:56:14;;;;;;;6.57;5.85;;;19.30;38.40;;;;;;5013476;28;20037;-90
2022/05/01 12:58:41;;;;;;;6.25;5.53;;;19.40;38.90;;;;;;5098143;22;20054;-79
2022/05/01 13:01:07;;;;;;;6.15;5.35;;;19.60;39.20;;;;;;5095323;28;20044;-79
2022/05/01 13:03:38;;;;;;;6.68;5.72;;;19.80;39.40;;;;;;5095627;28;20020;-86
2022/05/01 13:06:16;;;;;;;7.13;5.72;;;20.00;39.30;;;;;;5077433;28;20081;-84
2022/05/01 13:08:46;;;;;;;6.97;5.60;;;20.20;38.90;;;;;;5077439;28;20107;-77
2022/05/01 13:11:13;;;;;;;10.25;6.47;;;20.20;38.20;;;;;;5094182;28;20024;-83
2022/05/01 13:13:46;;;;;;;7.28;5.45;;;20.20;37.90;;;;;;5095568;28;20035;-76
2022/05/01 13:16:13;;;;;;;7.70;5.00;;;20.30;37.70;;;;;;5095365;28;20069;-77
2022/05/01 13:18:38;;;;;;;6.35;4.95;;;20.30;37.60;;;;;;5095237;28;20024;-84
2022/05/01 13:21:04;;;;;;;6.03;5.43;;;20.40;37.40;;;;;;5093776;28;20027;-81
2022/05/01 13:23:30;;;;;;;5.38;4.70;;;20.40;37.40;;;;;;5094821;28;20499;-75
2022/05/01 13:25:56;;;;;;;6.18;5.03;;;20.40;36.50;;;;;;5094898;28;20032;-84
2022/05/01 13:28:21;;;;;;;8.30;6.05;;;20.40;36.90;;;;;;5094401;28;20027;-76
2022/05/01 13:30:47;;;;;;;6.28;5.07;;;20.30;36.20;;;;;;5094649;28;20016;-75
2022/05/01 13:33:13;;;;;;;7.78;5.78;;;20.30;36.20;;;;;;5094518;28;20028;-75
2022/05/01 13:35:38;;;;;;;7.90;5.38;;;20.30;36.50;;;;;;5076472;28;20106;-83
2022/05/01 13:38:04;;;;;;;5.80;5.30;;;20.30;36.90;;;;;;5095416;28;20024;-82
2022/05/01 13:45:58;;;;;;;8.30;5.45;;;20.30;35.60;;;;;;5094494;28;20043;-84
2022/05/01 13:48:24;;;;;;;6.32;5.47;;;20.40;36.00;;;;;;5092953;28;20020;-75
2022/05/01 13:50:50;;;;;;;6.43;5.82;;;20.20;36.10;;;;;;5094276;28;20142;-77
2022/05/01 13:53:16;;;;;;;6.90;5.63;;;20.10;35.60;;;;;;5088588;28;20087;-76
2022/05/01 13:55:42;;;;;;;10.88;5.50;;;20.00;36.10;;;;;;5092731;28;20038;-76
2022/05/01 13:58:07;;;;;;;9.02;5.78;;;19.90;36.00;;;;;;5076221;28;20459;-89
2022/05/01 14:00:33;;;;;;;6.53;5.40;;;19.80;36.50;;;;;;5093513;28;20024;-89
2022/05/01 14:03:00;;;;;;;6.22;5.07;;;19.80;36.40;;;;;;5093293;28;20032;-90
2022/05/01 14:05:26;;;;;;;9.27;5.55;;;19.70;36.10;;;;;;5075533;28;20473;-86